Time;durP1;ratioP1;P1;durP2;ratioP2;P2;SDS_P1;SDS_P2;PMS_P1;PMS_P2;Temp;Humidity;BMP_temperature;BMP_pressure;BME280_temperature;BME280_humidity;BME280_pressure;Samples;Min_cycle;Max_cycle;Signal;HPM_P1;HPM_P2
2021/05/01 00:02:20;;;;;;;1999.90;999.90;;;11.00;99.90;;;;;;5058110;28;20204;-84
2021/05/01 00:04:46;;;;;;;1999.90;999.90;;;11.00;99.90;;;;;;5040044;28;20164;-84
2021/05/01 00:07:11;;;;;;;1999.90;999.90;;;11.00;99.90;;;;;;5057055;28;20656;-84
2021/05/01 00:09:37;;;;;;;1999.90;999.90;;;10.90;99.90;;;;;;5056375;28;20176;-84
2021/05/01 00:12:03;;;;;;;1999.90;999.90;;;10.80;99.90;;;;;;5039371;28;20199;-84
2021/05/01 00:14:29;;;;;;;1999.90;999.90;;;10.80;99.90;;;;;;5039332;28;20215;-84
2021/05/01 00:16:55;;;;;;;1999.90;999.90;;;10.90;99.90;;;;;;5057036;28;20976;-83
2021/05/01 00:19:23;;;;;;;1999.90;999.90;;;10.90;99.90;;;;;;5058482;28;20199;-84
2021/05/01 00:21:49;;;;;;;1999.90;999.90;;;10.90;99.90;;;;;;5041149;28;20172;-84
2021/05/01 00:24:14;;;;;;;1999.90;999.90;;;10.90;99.90;;;;;;5040340;28;20191;-84
2021/05/01 00:26:41;;;;;;;1999.90;999.90;;;10.90;99.90;;;;;;5040376;28;20494;-84
2021/05/01 00:29:07;;;;;;;1999.90;999.90;;;10.90;99.90;;;;;;5058111;28;20727;-84
2021/05/01 00:31:35;;;;;;;1999.90;999.90;;;10.80;99.90;;;;;;5040048;28;20171;-85
2021/05/01 00:34:01;;;;;;;1999.90;999.90;;;10.80;99.90;;;;;;5040911;28;20231;-85
2021/05/01 00:36:27;;;;;;;1999.90;999.90;;;10.80;99.90;;;;;;5040138;28;20172;-85
2021/05/01 00:38:54;;;;;;;1999.90;999.90;;;10.80;99.90;;;;;;5057576;28;20173;-85
2021/05/01 00:41:20;;;;;;;1999.90;999.90;;;10.70;99.90;;;;;;5040078;28;20598;-85
2021/05/01 00:43:46;;;;;;;1999.90;999.90;;;10.70;99.90;;;;;;5040251;28;20168;-84
2021/05/01 00:46:12;;;;;;;1999.90;999.90;;;10.50;99.90;;;;;;5040240;28;20169;-85
2021/05/01 00:48:38;;;;;;;1999.90;999.90;;;10.50;99.90;;;;;;5039622;28;20203;-84
2021/05/01 00:51:04;;;;;;;1999.90;999.90;;;10.50;99.90;;;;;;5057493;28;20176;-84
2021/05/01 00:53:31;;;;;;;1999.90;999.90;;;10.60;99.90;;;;;;5058116;28;20234;-85
2021/05/01 00:55:57;;;;;;;1999.90;999.90;;;10.60;99.90;;;;;;5057992;28;20163;-85
2021/05/01 00:58:23;;;;;;;1999.90;999.90;;;10.60;99.90;;;;;;5057690;28;20185;-85
2021/05/01 01:03:38;;;;;;;1999.90;999.90;;;10.60;99.90;;;;;;5057348;28;20195;-85
2021/05/01 01:06:04;;;;;;;1999.90;999.90;;;10.40;99.90;;;;;;5057633;28;20160;-85
2021/05/01 01:08:30;;;;;;;1999.90;999.90;;;10.40;99.90;;;;;;5056847;28;20273;-84
2021/05/01 01:10:56;;;;;;;1999.90;999.90;;;10.40;99.90;;;;;;5055841;28;20172;-84
2021/05/01 01:13:22;;;;;;;1999.90;999.90;;;10.20;99.90;;;;;;5037715;28;20490;-84
2021/05/01 01:15:48;;;;;;;1999.90;999.90;;;10.10;99.90;;;;;;5055762;28;20456;-84
2021/05/01 01:18:14;;;;;;;1999.90;999.90;;;10.00;99.90;;;;;;5055930;28;20426;-84
2021/05/01 01:20:40;;;;;;;1999.90;999.90;;;10.10;99.90;;;;;;5056837;28;20505;-84
2021/05/01 01:23:06;;;;;;;1999.90;999.90;;;9.90;99.90;;;;;;5059646;28;20407;-84
2021/05/01 01:25:31;;;;;;;1999.90;999.90;;;9.90;99.90;;;;;;5060112;28;20407;-84
2021/05/01 01:27:59;;;;;;;1999.90;999.90;;;9.80;99.90;;;;;;5059196;28;20192;-84
2021/05/01 01:30:29;;;;;;;1999.90;999.90;;;9.80;99.90;;;;;;5059444;28;20399;-84
2021/05/01 01:32:55;;;;;;;1999.90;999.90;;;9.80;99.90;;;;;;5059639;28;20156;-84
2021/05/01 01:35:22;;;;;;;1999.90;999.90;;;9.70;99.90;;;;;;5059113;28;20161;-84
2021/05/01 01:37:51;;;;;;;1999.90;999.90;;;9.60;99.90;;;;;;5058909;28;20199;-85
2021/05/01 01:40:19;;;;;;;1999.90;999.90;;;9.60;99.90;;;;;;5041632;28;20214;-83
2021/05/01 01:42:44;;;;;;;1999.90;999.90;;;9.40;99.90;;;;;;5059338;28;20192;-83
2021/05/01 01:45:14;;;;;;;1999.90;999.90;;;9.30;99.90;;;;;;5041377;28;20176;-83
2021/05/01 01:47:40;;;;;;;1999.90;999.90;;;9.30;99.90;;;;;;5059374;28;20200;-82
2021/05/01 01:50:10;;;;;;;1999.90;999.90;;;9.30;99.90;;;;;;5058574;28;20195;-83
2021/05/01 01:52:37;;;;;;;1999.90;999.90;;;9.20;99.90;;;;;;5041243;28;20171;-84
2021/05/01 01:55:07;;;;;;;1999.90;999.90;;;9.10;99.90;;;;;;5041689;28;20659;-84
2021/05/01 01:57:33;;;;;;;1999.90;999.90;;;9.10;99.90;;;;;;5059970;28;20196;-85
2021/05/01 01:59:59;;;;;;;1999.90;999.90;;;9.10;99.90;;;;;;5060713;28;20171;-84
2021/05/01 02:02:25;;;;;;;1999.90;999.90;;;9.00;99.90;;;;;;5060897;28;20172;-84
2021/05/01 02:04:51;;;;;;;1999.90;999.90;;;8.80;99.90;;;;;;5061064;28;20414;-85
2021/05/01 02:07:17;;;;;;;1999.90;999.90;;;8.70;99.90;;;;;;5061211;28;20564;-85
2021/05/01 02:09:42;;;;;;;1999.90;999.90;;;8.70;99.90;;;;;;5043937;28;20407;-85
2021/05/01 02:12:09;;;;;;;1999.90;999.90;;;8.60;99.90;;;;;;5061879;28;20234;-85
2021/05/01 02:14:34;;;;;;;1999.90;999.90;;;8.50;99.90;;;;;;5062338;28;20586;-85
2021/05/01 02:17:00;;;;;;;1999.90;999.90;;;8.40;99.90;;;;;;5044868;28;20215;-85
2021/05/01 02:19:25;;;;;;;1999.90;999.90;;;8.40;99.90;;;;;;5062197;28;20252;-85
2021/05/01 02:21:51;;;;;;;1999.90;999.90;;;8.30;99.90;;;;;;5062094;28;20164;-84
2021/05/01 02:24:17;;;;;;;1999.90;999.90;;;8.30;99.90;;;;;;5062246;28;20505;-85
2021/05/01 02:26:42;;;;;;;1999.90;999.90;;;8.30;99.90;;;;;;5044415;28;20260;-85
2021/05/01 02:29:08;;;;;;;1999.90;999.90;;;8.40;99.90;;;;;;5062596;28;20195;-85
2021/05/01 02:31:35;;;;;;;1999.90;999.90;;;8.40;99.90;;;;;;5044218;28;20164;-85
2021/05/01 02:34:00;;;;;;;1999.90;999.90;;;8.50;99.90;;;;;;5062506;28;20171;-84
2021/05/01 02:36:26;;;;;;;1999.90;999.90;;;8.60;99.90;;;;;;5045167;28;20160;-84
2021/05/01 02:38:52;;;;;;;1999.90;999.90;;;8.60;99.90;;;;;;5062282;28;20161;-85
2021/05/01 02:41:18;;;;;;;1999.90;999.90;;;8.70;99.90;;;;;;5044637;28;20177;-85
2021/05/01 02:43:44;;;;;;;1999.90;999.90;;;8.60;99.90;;;;;;5043455;28;20179;-85
2021/05/01 02:46:10;;;;;;;1999.90;999.90;;;8.50;99.90;;;;;;5043959;28;20168;-85
2021/05/01 02:48:36;;;;;;;1999.90;999.90;;;8.40;99.90;;;;;;5061027;28;20200;-85
2021/05/01 02:51:01;;;;;;;1999.90;999.90;;;8.40;99.90;;;;;;5062529;28;20198;-85
2021/05/01 02:53:27;;;;;;;1999.90;999.90;;;8.50;99.90;;;;;;5062667;28;20713;-85
2021/05/01 02:55:53;;;;;;;1999.90;999.90;;;8.60;99.90;;;;;;5045244;28;20164;-85
2021/05/01 02:58:19;;;;;;;1999.90;999.90;;;8.50;99.90;;;;;;5062445;28;20192;-85
2021/05/01 03:00:44;;;;;;;1999.90;999.90;;;8.40;99.90;;;;;;5062820;28;20214;-85
2021/05/01 03:03:10;;;;;;;1999.90;999.90;;;8.30;99.90;;;;;;5045332;28;20407;-85
2021/05/01 03:05:36;;;;;;;1999.90;999.90;;;8.30;99.90;;;;;;5045198;28;20177;-86
2021/05/01 03:08:02;;;;;;;1999.90;999.90;;;8.40;99.90;;;;;;5045016;28;20200;-85
2021/05/01 03:10:29;;;;;;;1999.90;999.90;;;8.30;99.90;;;;;;5062865;28;20535;-86
2021/05/01 03:12:55;;;;;;;1999.90;999.90;;;8.20;99.90;;;;;;5045003;28;20160;-85
2021/05/01 03:15:22;;;;;;;1999.90;999.90;;;8.20;99.90;;;;;;5061846;28;20165;-85
2021/05/01 03:17:48;;;;;;;1999.90;999.90;;;8.20;99.90;;;;;;5061529;28;20188;-85
2021/05/01 03:20:15;;;;;;;1999.90;999.90;;;8.10;99.90;;;;;;5061494;28;20172;-85
2021/05/01 03:22:41;;;;;;;1999.90;999.90;;;8.10;99.90;;;;;;5062241;28;20164;-85
2021/05/01 03:25:08;;;;;;;1999.90;999.90;;;8.20;99.90;;;;;;5045537;28;20175;-85
2021/05/01 03:27:35;;;;;;;1999.90;999.90;;;8.20;99.90;;;;;;5044030;28;20204;-85
2021/05/01 03:30:01;;;;;;;1999.90;999.90;;;8.40;99.90;;;;;;5043780;28;20160;-85
2021/05/01 03:32:27;;;;;;;1999.90;999.90;;;8.50;99.90;;;;;;5061807;28;20163;-85
2021/05/01 03:34:53;;;;;;;1999.90;999.90;;;8.60;99.90;;;;;;5062532;28;20396;-85
2021/05/01 03:37:19;;;;;;;1999.90;999.90;;;8.60;99.90;;;;;;5062724;28;20729;-85
2021/05/01 03:39:45;;;;;;;1999.90;999.90;;;8.70;99.90;;;;;;5062128;28;20169;-85
2021/05/01 03:42:10;;;;;;;1999.90;999.90;;;8.70;99.90;;;;;;5062358;28;20620;-85
2021/05/01 03:44:36;;;;;;;1999.90;999.90;;;8.60;99.90;;;;;;5044272;28;20589;-85
2021/05/01 03:47:02;;;;;;;1999.90;999.90;;;8.50;99.90;;;;;;5044389;28;20211;-85
2021/05/01 03:49:28;;;;;;;1999.90;999.90;;;8.50;99.90;;;;;;5062628;28;20435;-85
2021/05/01 03:51:53;;;;;;;1999.90;999.90;;;8.40;99.90;;;;;;5061618;28;20192;-86
2021/05/01 03:54:19;;;;;;;1999.90;999.90;;;8.40;99.90;;;;;;5061702;28;20175;-85
2021/05/01 03:56:45;;;;;;;1999.90;999.90;;;8.50;99.90;;;;;;5044456;28;20168;-86
2021/05/01 03:59:11;;;;;;;1999.90;999.90;;;8.50;99.90;;;;;;5061545;28;20190;-85
2021/05/01 04:01:37;;;;;;;1999.90;999.90;;;8.50;99.90;;;;;;5061055;28;20161;-85
2021/05/01 04:04:03;;;;;;;1999.90;999.90;;;8.50;99.90;;;;;;5061781;28;20654;-85
2021/05/01 04:06:29;;;;;;;1999.90;999.90;;;8.50;99.90;;;;;;5043957;28;20171;-85
2021/05/01 04:08:55;;;;;;;1999.90;999.90;;;8.50;99.90;;;;;;5043486;28;20192;-85
2021/05/01 04:11:21;;;;;;;1999.90;999.90;;;8.50;99.90;;;;;;5138376;22;20241;-82
2021/05/01 04:13:47;;;;;;;1999.90;999.90;;;8.50;99.90;;;;;;5080421;28;20565;-82
2021/05/01 04:16:19;;;;;;;1999.90;999.90;;;8.50;99.90;;;;;;5080537;28;20171;-82
2021/05/01 04:18:48;;;;;;;1999.90;999.90;;;8.50;99.90;;;;;;5080410;28;20225;-82
2021/05/01 04:21:15;;;;;;;1999.90;999.90;;;8.60;99.90;;;;;;5080349;28;20167;-82
2021/05/01 04:23:41;;;;;;;1999.90;999.90;;;8.60;99.90;;;;;;5080382;28;20160;-82
2021/05/01 04:26:06;;;;;;;1999.90;999.90;;;8.60;99.90;;;;;;5080568;28;20167;-82
2021/05/01 04:28:32;;;;;;;1999.90;999.90;;;8.70;99.90;;;;;;5080387;28;20207;-82
2021/05/01 04:30:58;;;;;;;1999.90;999.90;;;8.70;99.90;;;;;;5080153;28;20167;-82
2021/05/01 04:33:25;;;;;;;1999.90;999.90;;;8.60;99.90;;;;;;5080249;28;20168;-82
2021/05/01 04:35:51;;;;;;;1999.90;999.90;;;8.70;99.90;;;;;;5081195;28;20251;-82
2021/05/01 04:38:17;;;;;;;1999.90;999.90;;;8.70;99.90;;;;;;5081495;28;20219;-82
2021/05/01 04:40:43;;;;;;;1999.90;999.90;;;8.70;99.90;;;;;;5062880;28;20809;-82
2021/05/01 04:43:11;;;;;;;1999.90;999.90;;;8.70;99.90;;;;;;5062794;28;20172;-82
2021/05/01 04:45:37;;;;;;;1999.90;999.90;;;8.70;99.90;;;;;;5080731;28;20156;-82
2021/05/01 04:48:05;;;;;;;1999.90;999.90;;;8.70;99.90;;;;;;5063207;28;20213;-82
2021/05/01 04:50:30;;;;;;;1999.90;999.90;;;8.80;99.90;;;;;;5081249;28;20160;-82
2021/05/01 04:52:56;;;;;;;1999.90;999.90;;;8.80;99.90;;;;;;5080690;28;20243;-82
2021/05/01 04:55:23;;;;;;;1999.90;999.90;;;8.90;99.90;;;;;;5082610;28;20179;-82
2021/05/01 04:57:49;;;;;;;1999.90;999.90;;;8.90;99.90;;;;;;5084639;28;20196;-82
2021/05/01 05:00:19;;;;;;;1999.90;999.90;;;8.90;99.90;;;;;;5084939;28;20180;-82
2021/05/01 05:02:46;;;;;;;1999.90;999.90;;;8.90;99.90;;;;;;5085194;28;20667;-82
2021/05/01 05:05:13;;;;;;;1999.90;999.90;;;8.90;99.90;;;;;;5084403;28;20160;-82
2021/05/01 05:07:39;;;;;;;1999.90;999.90;;;9.00;99.90;;;;;;5066954;28;20191;-82
2021/05/01 05:10:06;;;;;;;1999.90;999.90;;;9.00;99.90;;;;;;5067282;28;20654;-81
2021/05/01 05:12:31;;;;;;;1999.90;999.90;;;9.00;99.90;;;;;;5066537;28;20721;-82
2021/05/01 05:14:57;;;;;;;1999.90;999.90;;;9.10;99.90;;;;;;5084355;28;20163;-82
2021/05/01 05:17:23;;;;;;;1999.90;999.90;;;9.20;99.90;;;;;;5066255;28;20199;-82
2021/05/01 05:19:48;;;;;;;1999.90;999.90;;;9.20;99.90;;;;;;5083879;28;20164;-82
2021/05/01 05:22:14;;;;;;;1999.90;999.90;;;9.20;99.90;;;;;;5084145;28;20171;-82
2021/05/01 05:24:40;;;;;;;1999.90;999.90;;;9.30;99.90;;;;;;5084225;28;20160;-82
2021/05/01 05:27:06;;;;;;;1999.90;999.90;;;9.20;99.90;;;;;;5065443;28;20793;-82
2021/05/01 05:29:33;;;;;;;1999.90;999.90;;;9.30;99.90;;;;;;5083756;28;20178;-82
2021/05/01 05:31:59;;;;;;;1999.90;999.90;;;9.40;99.90;;;;;;5084789;28;20432;-82
2021/05/01 05:34:25;;;;;;;1999.90;999.90;;;9.40;99.90;;;;;;5068276;28;20160;-82
2021/05/01 05:36:50;;;;;;;1999.90;999.90;;;9.40;99.90;;;;;;5085834;28;20180;-82
2021/05/01 05:39:16;;;;;;;1999.90;999.90;;;9.30;99.90;;;;;;5085906;28;20202;-82
2021/05/01 05:41:43;;;;;;;1999.90;999.90;;;9.30;99.90;;;;;;5068962;28;20247;-82
2021/05/01 05:44:09;;;;;;;1999.90;999.90;;;9.30;99.90;;;;;;5087468;28;20421;-82
2021/05/01 05:46:35;;;;;;;1999.90;999.90;;;9.40;99.90;;;;;;5067790;28;20634;-82
2021/05/01 05:49:01;;;;;;;1999.90;999.90;;;9.50;99.90;;;;;;5086271;28;20172;-82
2021/05/01 05:51:27;;;;;;;1999.90;999.90;;;9.50;99.90;;;;;;5068798;28;20179;-82
2021/05/01 05:53:52;;;;;;;1999.90;999.90;;;9.60;99.90;;;;;;5086092;28;20398;-82
2021/05/01 05:56:18;;;;;;;1999.90;999.90;;;9.70;99.90;;;;;;5085331;28;20160;-82
2021/05/01 05:58:46;;;;;;;1999.90;999.90;;;9.70;99.90;;;;;;5085552;28;20199;-82
2021/05/01 06:01:12;;;;;;;1999.90;999.90;;;9.80;99.90;;;;;;5085567;28;20435;-82
2021/05/01 06:03:39;;;;;;;1999.90;999.90;;;9.70;99.90;;;;;;5086889;28;20224;-81
2021/05/01 06:06:10;;;;;;;1999.90;999.90;;;9.70;99.90;;;;;;5086388;28;20168;-81
2021/05/01 06:08:38;;;;;;;1999.90;999.90;;;9.70;99.90;;;;;;5087014;28;20714;-82
2021/05/01 06:11:04;;;;;;;1999.90;999.90;;;9.70;99.90;;;;;;5087204;28;20194;-81
2021/05/01 06:13:35;;;;;;;1999.90;999.90;;;9.70;99.90;;;;;;5085121;28;20167;-82
2021/05/01 06:16:01;;;;;;;1999.90;999.90;;;9.60;99.90;;;;;;5068054;28;20160;-82
2021/05/01 06:18:36;;;;;;;1999.90;999.90;;;9.60;99.90;;;;;;5086880;28;20210;-82
2021/05/01 06:21:02;;;;;;;1999.90;999.90;;;9.60;99.90;;;;;;5086885;28;20158;-82
2021/05/01 06:23:28;;;;;;;1999.90;999.90;;;9.70;99.90;;;;;;5086118;28;20164;-82
2021/05/01 06:25:54;;;;;;;1999.90;999.90;;;9.60;99.90;;;;;;5087292;28;20394;-82
2021/05/01 06:28:20;;;;;;;1999.90;999.90;;;9.50;99.90;;;;;;5069274;28;20430;-82
2021/05/01 06:30:46;;;;;;;1999.90;999.90;;;9.70;99.90;;;;;;5067653;28;20164;-82
2021/05/01 06:33:14;;;;;;;1999.90;999.90;;;9.70;99.90;;;;;;5064279;28;20172;-82
2021/05/01 06:35:42;;;;;;;1999.90;999.90;;;9.70;99.90;;;;;;5066897;28;20195;-81
2021/05/01 06:38:07;;;;;;;1999.90;999.90;;;9.80;99.90;;;;;;5084668;28;20203;-82
2021/05/01 06:40:42;;;;;;;1999.90;999.90;;;9.80;99.90;;;;;;5065988;28;20160;-81
2021/05/01 06:43:14;;;;;;;1999.90;999.90;;;10.00;99.90;;;;;;5083464;28;20385;-81
2021/05/01 06:45:43;;;;;;;1999.90;999.90;;;10.10;99.90;;;;;;5081945;28;20144;-81
2021/05/01 06:48:14;;;;;;;1999.90;999.90;;;10.10;99.90;;;;;;5081826;28;20639;-81
2021/05/01 06:50:41;;;;;;;1999.90;999.90;;;10.20;99.90;;;;;;5081431;28;20191;-80
2021/05/01 06:53:08;;;;;;;1999.90;999.90;;;10.30;99.90;;;;;;5083342;28;20187;-81
2021/05/01 06:55:34;;;;;;;1999.90;999.90;;;10.40;99.90;;;;;;5064803;28;20164;-80
2021/05/01 06:58:03;;;;;;;1999.90;999.90;;;10.50;99.90;;;;;;5082643;28;20184;-80
2021/05/01 07:00:30;;;;;;;1999.90;999.90;;;10.50;99.90;;;;;;5082247;28;20166;-80
2021/05/01 07:03:06;;;;;;;1999.90;999.90;;;10.60;99.90;;;;;;5083005;28;20246;-80
2021/05/01 07:05:33;;;;;;;1999.90;999.90;;;10.60;99.90;;;;;;5082375;28;20156;-81
2021/05/01 07:07:59;;;;;;;1999.90;999.90;;;10.60;99.90;;;;;;5080997;28;20556;-80
2021/05/01 07:10:24;;;;;;;1999.90;999.90;;;10.60;99.90;;;;;;5080918;28;20172;-81
2021/05/01 07:12:50;;;;;;;1999.90;999.90;;;10.50;99.90;;;;;;5080560;28;20418;-81
2021/05/01 07:15:18;;;;;;;1999.90;999.90;;;10.30;99.90;;;;;;5080584;28;20234;-80
2021/05/01 07:17:46;;;;;;;1999.90;999.90;;;10.10;99.90;;;;;;5078415;28;20718;-80
2021/05/01 07:20:13;;;;;;;1999.90;999.90;;;10.20;99.90;;;;;;5062571;28;20167;-81
2021/05/01 07:22:39;;;;;;;1999.90;999.90;;;10.40;99.90;;;;;;5081018;28;20627;-81
2021/05/01 07:25:07;;;;;;;1999.90;999.90;;;10.40;99.90;;;;;;5081117;28;20156;-81
2021/05/01 07:27:49;;;;;;;1999.90;999.90;;;10.10;99.90;;;;;;5080655;28;20291;-81
2021/05/01 07:30:17;;;;;;;1999.90;999.90;;;10.10;99.90;;;;;;5062417;28;20173;-81
2021/05/01 07:32:45;;;;;;;1999.90;999.90;;;10.20;99.90;;;;;;5080514;28;20171;-81
2021/05/01 07:35:13;;;;;;;1999.90;999.90;;;10.20;99.90;;;;;;5080574;28;20259;-81
2021/05/01 07:37:41;;;;;;;1999.90;999.90;;;10.20;99.90;;;;;;5080534;28;20195;-81
2021/05/01 07:40:11;;;;;;;1999.90;999.90;;;10.30;99.90;;;;;;5080491;28;20156;-81
2021/05/01 07:42:39;;;;;;;1999.90;999.90;;;10.50;99.90;;;;;;5080221;28;20611;-80
2021/05/01 07:45:05;;;;;;;1999.90;999.90;;;10.40;99.90;;;;;;5077461;28;20194;-80
2021/05/01 07:47:35;;;;;;;1999.90;999.90;;;10.50;99.90;;;;;;5075770;28;20184;-80
2021/05/01 07:50:03;;;;;;;1999.90;999.90;;;10.60;99.90;;;;;;5076620;28;20622;-80
2021/05/01 07:52:31;;;;;;;1999.90;999.90;;;10.50;99.90;;;;;;5076370;28;20580;-80
2021/05/01 07:54:58;;;;;;;1999.90;999.90;;;10.60;99.90;;;;;;5075444;28;20167;-80
2021/05/01 07:57:24;;;;;;;1999.90;999.90;;;10.70;99.90;;;;;;5076113;28;20192;-80
2021/05/01 07:59:50;;;;;;;1999.90;999.90;;;10.60;99.90;;;;;;5077435;28;20148;-80
2021/05/01 08:02:16;;;;;;;1999.90;999.90;;;10.60;99.90;;;;;;5076559;28;20178;-80
2021/05/01 08:04:42;;;;;;;1999.90;999.90;;;10.60;99.90;;;;;;5076492;28;20191;-80
2021/05/01 08:07:07;;;;;;;1999.90;999.90;;;10.70;99.90;;;;;;5076545;28;20305;-80
2021/05/01 08:09:33;;;;;;;1999.90;999.90;;;10.70;99.90;;;;;;5077448;28;20578;-80
2021/05/01 08:11:59;;;;;;;1999.90;999.90;;;10.70;99.90;;;;;;5077916;28;20207;-80
2021/05/01 08:14:25;;;;;;;1999.90;999.90;;;10.80;99.90;;;;;;5059633;28;20176;-80
2021/05/01 08:16:50;;;;;;;1999.90;999.90;;;10.90;99.90;;;;;;5080477;28;20219;-80
2021/05/01 08:19:16;;;;;;;1999.90;999.90;;;10.80;99.90;;;;;;5079524;28;20188;-80
2021/05/01 08:21:42;;;;;;;1999.90;999.90;;;11.00;99.90;;;;;;5079342;28;20231;-80
2021/05/01 08:24:07;;;;;;;1999.90;999.90;;;11.10;99.90;;;;;;5079389;28;20523;-80
2021/05/01 08:26:33;;;;;;;1999.90;999.90;;;11.20;99.90;;;;;;5078689;28;20153;-80
2021/05/01 08:29:00;;;;;;;1999.90;999.90;;;11.40;99.90;;;;;;5079249;28;20398;-80
2021/05/01 08:31:26;;;;;;;1999.90;999.90;;;11.50;99.90;;;;;;5079012;28;20254;-80
2021/05/01 08:33:52;;;;;;;1999.90;999.90;;;11.40;96.90;;;;;;5081375;28;20234;-80
2021/05/01 08:36:18;;;;;;;1999.90;999.90;;;11.30;94.30;;;;;;5081191;28;20402;-80
2021/05/01 08:38:43;;;;;;;1999.90;999.90;;;11.40;93.70;;;;;;5079425;28;20191;-80
2021/05/01 08:41:09;;;;;;;1999.90;999.90;;;11.50;95.90;;;;;;5080300;28;20413;-80
2021/05/01 08:43:35;;;;;;;1999.90;999.90;;;11.50;91.50;;;;;;5079744;28;20490;-80
2021/05/01 08:46:11;;;;;;;1999.90;999.90;;;11.60;93.80;;;;;;5076186;28;20657;-80
2021/05/01 08:48:37;;;;;;;1999.90;999.90;;;11.90;93.50;;;;;;5079102;28;20673;-80
2021/05/01 08:51:03;;;;;;;1999.90;999.90;;;11.90;90.90;;;;;;5078830;28;20172;-80
2021/05/01 08:53:30;;;;;;;1999.90;999.90;;;11.90;91.70;;;;;;5080270;28;20171;-80
2021/05/01 08:55:56;;;;;;;1999.90;999.90;;;12.00;91.70;;;;;;5080789;28;20409;-80
2021/05/01 08:58:22;;;;;;;1999.90;999.90;;;12.10;92.50;;;;;;5078535;28;20271;-81
2021/05/01 09:00:50;;;;;;;1999.90;999.90;;;12.30;87.50;;;;;;5079104;28;20635;-81
2021/05/01 09:03:24;;;;;;;1999.90;999.90;;;12.00;73.40;;;;;;5078218;28;20405;-80
2021/05/01 09:05:55;;;;;;;1999.90;999.90;;;12.00;79.20;;;;;;5078085;28;20147;-80
2021/05/01 09:08:22;;;;;;;1999.90;999.90;;;12.00;79.50;;;;;;5078837;28;20209;-80
2021/05/01 09:10:53;;;;;;;1999.90;999.90;;;12.20;80.70;;;;;;5078058;28;20172;-80
2021/05/01 09:13:24;;;;;;;1999.90;999.90;;;12.30;79.40;;;;;;5077759;28;20164;-81
2021/05/01 09:15:58;;;;;;;1999.90;999.90;;;12.50;76.50;;;;;;5078054;28;20183;-81
2021/05/01 09:18:25;;;;;;;1999.90;999.90;;;12.60;73.30;;;;;;5079251;28;20203;-81
2021/05/01 09:20:51;;;;;;;1999.90;999.90;;;12.30;70.00;;;;;;5078235;28;20164;-80
2021/05/01 09:23:17;;;;;;;1999.90;999.90;;;12.50;71.20;;;;;;5078123;28;20160;-80
2021/05/01 09:26:01;;;;;;;1999.90;999.90;;;12.60;66.10;;;;;;5078272;28;20163;-81
2021/05/01 09:28:41;;;;;;;1999.90;999.90;;;12.80;70.90;;;;;;5079101;28;20195;-81
2021/05/01 09:31:11;;;;;;;1999.90;999.90;;;13.00;73.80;;;;;;5078836;28;20152;-81
2021/05/01 09:33:48;;;;;;;1999.90;999.90;;;12.90;64.00;;;;;;5078725;28;20152;-81
2021/05/01 09:36:21;;;;;;;1999.90;999.90;;;12.90;51.20;;;;;;5078535;28;20235;-80
2021/05/01 09:38:56;;;;;;;1999.90;999.90;;;13.00;56.90;;;;;;5077123;28;20215;-80
2021/05/01 09:41:27;;;;;;;1999.90;999.90;;;13.10;54.00;;;;;;5076867;28;20221;-81
2021/05/01 09:44:12;;;;;;;1999.90;999.90;;;13.30;39.60;;;;;;5079569;28;20227;-81
2021/05/01 09:46:37;;;;;;;1999.90;999.90;;;13.50;35.00;;;;;;5079713;28;20144;-81
2021/05/01 09:49:12;;;;;;;1999.90;999.90;;;13.60;29.60;;;;;;5080648;28;20164;-81
2021/05/01 09:51:48;;;;;;;1999.90;999.90;;;13.60;30.00;;;;;;5079419;28;20158;-81
2021/05/01 09:54:19;;;;;;;1999.90;999.90;;;13.70;27.40;;;;;;5078957;28;20159;-81
2021/05/01 09:56:46;;;;;;;1999.90;999.90;;;13.70;22.70;;;;;;5079502;28;20309;-81
2021/05/01 09:59:12;;;;;;;1999.90;999.90;;;13.70;26.70;;;;;;5079240;28;20445;-81
2021/05/01 10:01:38;;;;;;;1999.90;999.90;;;13.90;31.10;;;;;;5080092;28;20160;-81
2021/05/01 10:04:21;;;;;;;1999.90;999.90;;;13.80;26.10;;;;;;5079662;28;20398;-81
2021/05/01 10:06:56;;;;;;;1999.90;999.90;;;13.70;26.10;;;;;;5061259;28;20247;-81
2021/05/01 10:09:25;;;;;;;1999.90;999.90;;;13.80;22.00;;;;;;5078937;28;20877;-81
2021/05/01 10:11:55;;;;;;;1999.90;999.90;;;13.80;20.50;;;;;;5160793;22;20492;-84
2021/05/01 10:14:38;;;;;;;1999.90;999.90;;;14.10;20.60;;;;;;5082185;28;20385;-83
2021/05/01 10:17:05;;;;;;;1999.90;999.90;;;14.10;17.50;;;;;;5081946;28;20180;-84
2021/05/01 10:19:47;;;;;;;1999.90;999.90;;;14.20;18.00;;;;;;5081433;28;20442;-82
2021/05/01 10:22:26;;;;;;;1999.90;999.90;;;14.40;22.90;;;;;;5081701;28;20402;-82
2021/05/01 10:24:52;;;;;;;1999.90;999.90;;;14.80;19.80;;;;;;5064300;28;20459;-82
2021/05/01 10:27:19;;;;;;;1999.90;999.90;;;15.00;16.20;;;;;;5064133;28;20430;-84
2021/05/01 10:29:46;;;;;;;1999.90;999.90;;;15.20;11.70;;;;;;5064531;28;20762;-83
2021/05/01 10:32:29;;;;;;;1999.90;999.90;;;15.30;4.80;;;;;;5082180;28;20481;-82
2021/05/01 10:35:01;;;;;;;1999.90;999.90;;;15.30;3.00;;;;;;5063815;28;20399;-85
2021/05/01 10:37:30;;;;;;;1999.90;999.90;;;15.40;4.60;;;;;;5082115;28;20509;-82
2021/05/01 10:39:59;;;;;;;1999.90;999.90;;;15.30;1.00;;;;;;5082528;28;20480;-84
2021/05/01 10:42:25;;;;;;;1999.90;999.90;;;15.20;1.00;;;;;;5083169;28;20788;-84
2021/05/01 10:44:59;;;;;;;1999.90;999.90;;;14.80;1.00;;;;;;5082847;28;20471;-84
2021/05/01 10:47:31;;;;;;;1999.90;999.90;;;15.00;1.00;;;;;;5082032;28;20493;-84
2021/05/01 10:50:15;;;;;;;1999.90;999.90;;;15.10;1.00;;;;;;5083015;28;20393;-83
2021/05/01 10:52:41;;;;;;;1999.90;999.90;;;15.10;1.00;;;;;;5082265;28;20405;-84
2021/05/01 10:55:07;;;;;;;1999.90;999.90;;;15.10;1.00;;;;;;5083051;28;20445;-84
2021/05/01 10:57:39;;;;;;;1999.90;999.90;;;15.30;1.00;;;;;;5082603;28;20840;-84
2021/05/01 11:00:10;;;;;;;1999.90;999.90;;;15.60;1.00;;;;;;5082999;28;20375;-83
2021/05/01 11:02:38;;;;;;;1999.90;999.90;;;15.60;1.00;;;;;;5083655;28;20417;-83
2021/05/01 11:05:09;;;;;;;1999.90;999.90;;;15.50;1.00;;;;;;5085459;28;20406;-84
2021/05/01 11:07:37;;;;;;;1999.90;999.90;;;15.60;1.00;;;;;;5084259;28;20449;-84
2021/05/01 11:10:10;;;;;;;1999.90;999.90;;;15.60;1.00;;;;;;5082750;28;20398;-84
2021/05/01 11:12:39;;;;;;;1999.90;999.90;;;15.70;1.00;;;;;;5081159;28;20422;-84
2021/05/01 11:15:11;;;;;;;1999.90;999.90;;;16.00;1.00;;;;;;5081285;28;20744;-84
2021/05/01 11:17:47;;;;;;;1999.90;999.90;;;16.30;1.00;;;;;;5063291;28;20452;-84
2021/05/01 11:20:16;;;;;;;1999.90;999.90;;;16.50;1.00;;;;;;5080501;28;20871;-85
2021/05/01 11:22:44;;;;;;;1999.90;999.90;;;16.50;1.00;;;;;;5080519;28;20960;-84
2021/05/01 11:25:16;;;;;;;1999.90;999.90;;;16.70;1.00;;;;;;5080986;28;20404;-84
2021/05/01 11:27:44;;;;;;;1999.90;999.90;;;16.70;1.00;;;;;;5080075;28;20425;-84
2021/05/01 11:30:12;;;;;;;1999.90;999.90;;;16.40;1.00;;;;;;5080157;28;20474;-84
2021/05/01 11:32:38;;;;;;;1999.90;999.90;;;16.00;1.00;;;;;;5079826;28;20488;-84
2021/05/01 11:35:07;;;;;;;1999.90;999.90;;;15.60;1.00;;;;;;5079942;28;20762;-84
2021/05/01 11:37:39;;;;;;;1999.90;999.90;;;15.50;1.00;;;;;;5061704;28;20430;-84
2021/05/01 11:40:07;;;;;;;1999.90;999.90;;;15.70;1.00;;;;;;5080069;28;20398;-84
2021/05/01 11:42:35;;;;;;;1999.90;999.90;;;15.80;1.00;;;;;;5079828;28;20403;-83
2021/05/01 11:45:09;;;;;;;1999.90;999.90;;;15.70;1.00;;;;;;5080217;28;20924;-83
2021/05/01 11:47:38;;;;;;;1999.90;999.90;;;15.60;1.00;;;;;;5080427;28;20426;-84
2021/05/01 11:50:07;;;;;;;1999.90;999.90;;;15.50;1.00;;;;;;5062448;28;20889;-84
2021/05/01 11:53:03;;;;;;;1999.90;999.90;;;15.80;1.00;;;;;;5079380;28;20464;-84
2021/05/01 11:55:52;;;;;;;1999.90;999.90;;;16.20;1.00;;;;;;5079865;28;20888;-84
2021/05/01 11:58:48;;;;;;;1999.90;999.90;;;16.70;1.00;;;;;;5079182;28;20451;-84
2021/05/01 12:01:15;;;;;;;1999.90;999.90;;;17.20;1.00;;;;;;5079458;28;20392;-84
2021/05/01 12:03:54;;;;;;;1999.90;999.90;;;17.30;1.00;;;;;;5079647;28;20401;-84
2021/05/01 12:09:08;;;;;;;1999.90;999.90;;;16.70;1.00;;;;;;5105813;22;20518;-84
2021/05/01 12:11:43;;;;;;;1999.90;999.90;;;16.60;1.00;;;;;;5061025;28;20492;-84
2021/05/01 12:14:10;;;;;;;1999.90;999.90;;;16.50;1.00;;;;;;5079674;28;20508;-84